sensor_id;sensor_type;location;lat;lon;timestamp;P1;durP1;ratioP1;P2;durP2;ratioP2
10651;SDS011;5374;42.742;23.266;2023-02-28T00:02:20;21.67;;;15.57;;
10651;SDS011;5374;42.742;23.266;2023-02-28T00:05:07;21.43;;;14.40;;
10651;SDS011;5374;42.742;23.266;2023-02-28T00:07:57;21.57;;;14.30;;
10651;SDS011;5374;42.742;23.266;2023-02-28T00:10:44;20.43;;;14.90;;
10651;SDS011;5374;42.742;23.266;2023-02-28T00:35:15;20.57;;;13.20;;
10651;SDS011;5374;42.742;23.266;2023-02-28T00:38:02;19.57;;;13.33;;
10651;SDS011;5374;42.742;23.266;2023-02-28T00:40:50;20.97;;;14.50;;
10651;SDS011;5374;42.742;23.266;2023-02-28T00:43:37;18.03;;;13.90;;
10651;SDS011;5374;42.742;23.266;2023-02-28T00:46:25;20.00;;;15.60;;
10651;SDS011;5374;42.742;23.266;2023-02-28T00:49:14;22.20;;;15.63;;
10651;SDS011;5374;42.742;23.266;2023-02-28T00:52:01;20.63;;;15.27;;
10651;SDS011;5374;42.742;23.266;2023-02-28T00:54:49;21.40;;;15.53;;
10651;SDS011;5374;42.742;23.266;2023-02-28T00:57:36;21.77;;;15.30;;
10651;SDS011;5374;42.742;23.266;2023-02-28T01:00:23;21.67;;;15.93;;
10651;SDS011;5374;42.742;23.266;2023-02-28T01:03:10;24.60;;;17.73;;
10651;SDS011;5374;42.742;23.266;2023-02-28T01:05:59;23.43;;;17.33;;
10651;SDS011;5374;42.742;23.266;2023-02-28T01:08:46;21.77;;;15.33;;
10651;SDS011;5374;42.742;23.266;2023-02-28T01:11:33;20.80;;;15.43;;
10651;SDS011;5374;42.742;23.266;2023-02-28T01:14:21;21.27;;;15.63;;
10651;SDS011;5374;42.742;23.266;2023-02-28T01:17:09;24.67;;;16.20;;
10651;SDS011;5374;42.742;23.266;2023-02-28T01:19:56;25.17;;;15.30;;
10651;SDS011;5374;42.742;23.266;2023-02-28T01:22:45;24.67;;;15.77;;
10651;SDS011;5374;42.742;23.266;2023-02-28T01:25:34;23.13;;;15.50;;
10651;SDS011;5374;42.742;23.266;2023-02-28T01:28:21;22.33;;;14.90;;
10651;SDS011;5374;42.742;23.266;2023-02-28T01:31:09;19.13;;;13.90;;
10651;SDS011;5374;42.742;23.266;2023-02-28T01:33:56;22.63;;;14.77;;
10651;SDS011;5374;42.742;23.266;2023-02-28T01:36:46;21.53;;;14.60;;
10651;SDS011;5374;42.742;23.266;2023-02-28T01:39:35;27.80;;;19.57;;
10651;SDS011;5374;42.742;23.266;2023-02-28T01:42:22;33.80;;;20.20;;
10651;SDS011;5374;42.742;23.266;2023-02-28T01:45:16;21.80;;;15.23;;
10651;SDS011;5374;42.742;23.266;2023-02-28T01:48:08;19.57;;;13.63;;
10651;SDS011;5374;42.742;23.266;2023-02-28T01:50:56;20.03;;;13.47;;
10651;SDS011;5374;42.742;23.266;2023-02-28T01:53:51;17.97;;;13.30;;
10651;SDS011;5374;42.742;23.266;2023-02-28T01:56:45;19.50;;;14.40;;
10651;SDS011;5374;42.742;23.266;2023-02-28T01:59:37;18.10;;;12.93;;
10651;SDS011;5374;42.742;23.266;2023-02-28T02:02:31;18.60;;;13.30;;
10651;SDS011;5374;42.742;23.266;2023-02-28T02:05:19;17.50;;;12.93;;
10651;SDS011;5374;42.742;23.266;2023-02-28T02:08:08;19.37;;;13.47;;
10651;SDS011;5374;42.742;23.266;2023-02-28T02:10:59;19.43;;;12.97;;
10651;SDS011;5374;42.742;23.266;2023-02-28T02:14:02;21.83;;;13.67;;
10651;SDS011;5374;42.742;23.266;2023-02-28T02:17:11;18.10;;;13.40;;
10651;SDS011;5374;42.742;23.266;2023-02-28T02:20:14;18.40;;;13.53;;
10651;SDS011;5374;42.742;23.266;2023-02-28T02:23:27;18.27;;;12.77;;
10651;SDS011;5374;42.742;23.266;2023-02-28T02:33:12;18.93;;;12.93;;
10651;SDS011;5374;42.742;23.266;2023-02-28T02:36:27;15.97;;;12.57;;
10651;SDS011;5374;42.742;23.266;2023-02-28T02:39:21;17.20;;;12.43;;
10651;SDS011;5374;42.742;23.266;2023-02-28T02:42:19;17.83;;;12.87;;
10651;SDS011;5374;42.742;23.266;2023-02-28T02:45:12;20.80;;;13.73;;
10651;SDS011;5374;42.742;23.266;2023-02-28T02:48:05;20.70;;;14.70;;
10651;SDS011;5374;42.742;23.266;2023-02-28T02:50:55;19.70;;;14.27;;
10651;SDS011;5374;42.742;23.266;2023-02-28T02:53:48;18.77;;;13.63;;
10651;SDS011;5374;42.742;23.266;2023-02-28T02:56:39;23.90;;;15.47;;
10651;SDS011;5374;42.742;23.266;2023-02-28T02:59:30;24.03;;;16.83;;
10651;SDS011;5374;42.742;23.266;2023-02-28T03:02:20;22.57;;;15.20;;
10651;SDS011;5374;42.742;23.266;2023-02-28T03:05:11;22.00;;;14.50;;
10651;SDS011;5374;42.742;23.266;2023-02-28T03:08:05;23.17;;;14.97;;
10651;SDS011;5374;42.742;23.266;2023-02-28T03:10:56;20.37;;;14.40;;
10651;SDS011;5374;42.742;23.266;2023-02-28T03:13:49;19.07;;;13.90;;
10651;SDS011;5374;42.742;23.266;2023-02-28T03:16:59;18.70;;;13.37;;
10651;SDS011;5374;42.742;23.266;2023-02-28T03:20:01;22.87;;;14.27;;
10651;SDS011;5374;42.742;23.266;2023-02-28T03:22:56;23.90;;;14.90;;
10651;SDS011;5374;42.742;23.266;2023-02-28T03:25:53;24.43;;;15.67;;
10651;SDS011;5374;42.742;23.266;2023-02-28T03:28:49;23.37;;;16.77;;
10651;SDS011;5374;42.742;23.266;2023-02-28T03:31:41;28.00;;;17.63;;
10651;SDS011;5374;42.742;23.266;2023-02-28T03:34:36;29.73;;;20.43;;
10651;SDS011;5374;42.742;23.266;2023-02-28T03:37:25;35.03;;;24.70;;
10651;SDS011;5374;42.742;23.266;2023-02-28T03:40:15;33.53;;;25.90;;
10651;SDS011;5374;42.742;23.266;2023-02-28T03:43:09;36.17;;;26.13;;
10651;SDS011;5374;42.742;23.266;2023-02-28T03:46:00;33.30;;;24.60;;
10651;SDS011;5374;42.742;23.266;2023-02-28T03:48:53;30.77;;;21.13;;
10651;SDS011;5374;42.742;23.266;2023-02-28T03:51:47;32.93;;;23.17;;
10651;SDS011;5374;42.742;23.266;2023-02-28T03:54:40;37.43;;;26.40;;
10651;SDS011;5374;42.742;23.266;2023-02-28T03:57:32;39.00;;;25.60;;
10651;SDS011;5374;42.742;23.266;2023-02-28T04:00:27;36.93;;;24.47;;
10651;SDS011;5374;42.742;23.266;2023-02-28T04:03:18;32.40;;;22.13;;
10651;SDS011;5374;42.742;23.266;2023-02-28T04:06:06;35.93;;;24.87;;
10651;SDS011;5374;42.742;23.266;2023-02-28T04:08:56;41.83;;;28.77;;
10651;SDS011;5374;42.742;23.266;2023-02-28T04:11:44;44.97;;;28.73;;
10651;SDS011;5374;42.742;23.266;2023-02-28T04:14:36;34.57;;;24.13;;
10651;SDS011;5374;42.742;23.266;2023-02-28T04:17:25;40.47;;;28.27;;
10651;SDS011;5374;42.742;23.266;2023-02-28T04:20:12;45.40;;;27.83;;
10651;SDS011;5374;42.742;23.266;2023-02-28T04:23:00;39.10;;;26.90;;
10651;SDS011;5374;42.742;23.266;2023-02-28T04:25:47;43.97;;;27.00;;
10651;SDS011;5374;42.742;23.266;2023-02-28T04:28:36;35.07;;;22.93;;
10651;SDS011;5374;42.742;23.266;2023-02-28T04:31:24;32.47;;;20.80;;
10651;SDS011;5374;42.742;23.266;2023-02-28T04:34:13;25.73;;;17.50;;
10651;SDS011;5374;42.742;23.266;2023-02-28T04:37:00;21.83;;;15.67;;
10651;SDS011;5374;42.742;23.266;2023-02-28T04:39:48;21.90;;;16.47;;
10651;SDS011;5374;42.742;23.266;2023-02-28T04:42:35;28.00;;;18.10;;
10651;SDS011;5374;42.742;23.266;2023-02-28T04:45:23;24.73;;;16.40;;
10651;SDS011;5374;42.742;23.266;2023-02-28T04:48:10;22.33;;;16.03;;
10651;SDS011;5374;42.742;23.266;2023-02-28T04:51:01;22.17;;;15.60;;
10651;SDS011;5374;42.742;23.266;2023-02-28T04:53:48;21.47;;;15.00;;
10651;SDS011;5374;42.742;23.266;2023-02-28T04:56:35;30.03;;;19.33;;
10651;SDS011;5374;42.742;23.266;2023-02-28T04:59:22;26.70;;;17.03;;
10651;SDS011;5374;42.742;23.266;2023-02-28T05:02:10;19.90;;;14.97;;
10651;SDS011;5374;42.742;23.266;2023-02-28T05:04:57;20.87;;;14.73;;
10651;SDS011;5374;42.742;23.266;2023-02-28T05:07:46;21.83;;;15.17;;
10651;SDS011;5374;42.742;23.266;2023-02-28T05:10:33;22.00;;;14.93;;
10651;SDS011;5374;42.742;23.266;2023-02-28T05:13:20;20.13;;;14.70;;
10651;SDS011;5374;42.742;23.266;2023-02-28T05:16:08;17.37;;;13.40;;
10651;SDS011;5374;42.742;23.266;2023-02-28T05:18:55;20.10;;;14.20;;
10651;SDS011;5374;42.742;23.266;2023-02-28T05:21:48;19.57;;;13.97;;
10651;SDS011;5374;42.742;23.266;2023-02-28T05:24:39;21.13;;;14.27;;
10651;SDS011;5374;42.742;23.266;2023-02-28T05:27:27;18.73;;;14.60;;
10651;SDS011;5374;42.742;23.266;2023-02-28T05:30:14;21.33;;;15.37;;
10651;SDS011;5374;42.742;23.266;2023-02-28T05:33:02;24.23;;;17.43;;
10651;SDS011;5374;42.742;23.266;2023-02-28T05:35:49;25.60;;;18.23;;
10651;SDS011;5374;42.742;23.266;2023-02-28T05:38:37;22.80;;;16.40;;
10651;SDS011;5374;42.742;23.266;2023-02-28T05:41:25;28.93;;;17.87;;
10651;SDS011;5374;42.742;23.266;2023-02-28T05:44:12;25.33;;;17.23;;
10651;SDS011;5374;42.742;23.266;2023-02-28T05:47:02;25.13;;;15.90;;
10651;SDS011;5374;42.742;23.266;2023-02-28T05:49:50;31.03;;;19.37;;
10651;SDS011;5374;42.742;23.266;2023-02-28T05:52:39;31.70;;;21.20;;
10651;SDS011;5374;42.742;23.266;2023-02-28T05:55:26;32.67;;;19.93;;
10651;SDS011;5374;42.742;23.266;2023-02-28T05:58:18;53.97;;;36.07;;
10651;SDS011;5374;42.742;23.266;2023-02-28T06:01:19;56.07;;;38.53;;
10651;SDS011;5374;42.742;23.266;2023-02-28T06:04:09;38.93;;;23.20;;
10651;SDS011;5374;42.742;23.266;2023-02-28T06:06:57;39.60;;;23.20;;
10651;SDS011;5374;42.742;23.266;2023-02-28T06:09:45;35.37;;;21.30;;
10651;SDS011;5374;42.742;23.266;2023-02-28T06:12:32;37.37;;;20.53;;
10651;SDS011;5374;42.742;23.266;2023-02-28T06:15:20;31.03;;;20.00;;
10651;SDS011;5374;42.742;23.266;2023-02-28T06:18:08;35.50;;;21.67;;
10651;SDS011;5374;42.742;23.266;2023-02-28T06:20:55;51.97;;;33.63;;
10651;SDS011;5374;42.742;23.266;2023-02-28T06:23:42;54.97;;;35.73;;
10651;SDS011;5374;42.742;23.266;2023-02-28T06:26:30;69.00;;;44.07;;
10651;SDS011;5374;42.742;23.266;2023-02-28T06:29:18;48.97;;;31.50;;
10651;SDS011;5374;42.742;23.266;2023-02-28T06:32:06;39.57;;;27.70;;
10651;SDS011;5374;42.742;23.266;2023-02-28T06:34:54;45.37;;;27.13;;
10651;SDS011;5374;42.742;23.266;2023-02-28T06:37:43;47.50;;;27.77;;
10651;SDS011;5374;42.742;23.266;2023-02-28T06:40:30;47.13;;;27.00;;
10651;SDS011;5374;42.742;23.266;2023-02-28T06:43:20;40.30;;;23.93;;
10651;SDS011;5374;42.742;23.266;2023-02-28T06:46:08;63.23;;;39.00;;
10651;SDS011;5374;42.742;23.266;2023-02-28T06:49:01;68.13;;;37.33;;
10651;SDS011;5374;42.742;23.266;2023-02-28T06:51:49;66.67;;;41.77;;
10651;SDS011;5374;42.742;23.266;2023-02-28T06:54:36;52.67;;;29.57;;
10651;SDS011;5374;42.742;23.266;2023-02-28T06:57:24;49.10;;;26.97;;
10651;SDS011;5374;42.742;23.266;2023-02-28T07:00:11;51.47;;;29.57;;
10651;SDS011;5374;42.742;23.266;2023-02-28T07:02:59;43.77;;;26.70;;
10651;SDS011;5374;42.742;23.266;2023-02-28T07:05:48;46.40;;;29.07;;
10651;SDS011;5374;42.742;23.266;2023-02-28T07:08:36;48.37;;;30.63;;
10651;SDS011;5374;42.742;23.266;2023-02-28T07:11:24;80.77;;;40.10;;
10651;SDS011;5374;42.742;23.266;2023-02-28T07:14:12;81.67;;;37.17;;
10651;SDS011;5374;42.742;23.266;2023-02-28T07:17:00;102.60;;;43.33;;
10651;SDS011;5374;42.742;23.266;2023-02-28T07:19:47;81.93;;;47.13;;
10651;SDS011;5374;42.742;23.266;2023-02-28T07:22:36;58.40;;;33.00;;
10651;SDS011;5374;42.742;23.266;2023-02-28T07:25:24;48.37;;;28.13;;
10651;SDS011;5374;42.742;23.266;2023-02-28T07:28:14;48.97;;;27.70;;
10651;SDS011;5374;42.742;23.266;2023-02-28T07:31:04;48.00;;;29.63;;
10651;SDS011;5374;42.742;23.266;2023-02-28T07:33:52;41.47;;;26.97;;
10651;SDS011;5374;42.742;23.266;2023-02-28T07:36:41;42.87;;;28.20;;
10651;SDS011;5374;42.742;23.266;2023-02-28T07:39:30;53.77;;;33.73;;
10651;SDS011;5374;42.742;23.266;2023-02-28T07:42:17;42.83;;;27.90;;
10651;SDS011;5374;42.742;23.266;2023-02-28T07:45:05;49.13;;;31.80;;
10651;SDS011;5374;42.742;23.266;2023-02-28T07:47:53;45.47;;;28.83;;
10651;SDS011;5374;42.742;23.266;2023-02-28T07:50:41;44.97;;;28.57;;
10651;SDS011;5374;42.742;23.266;2023-02-28T07:53:28;42.13;;;26.27;;
10651;SDS011;5374;42.742;23.266;2023-02-28T07:56:17;39.67;;;26.73;;
10651;SDS011;5374;42.742;23.266;2023-02-28T07:59:04;40.70;;;26.80;;
10651;SDS011;5374;42.742;23.266;2023-02-28T08:01:51;40.80;;;27.27;;
10651;SDS011;5374;42.742;23.266;2023-02-28T08:04:39;41.80;;;27.10;;
10651;SDS011;5374;42.742;23.266;2023-02-28T08:07:26;39.67;;;27.40;;
10651;SDS011;5374;42.742;23.266;2023-02-28T08:10:14;45.67;;;33.73;;
10651;SDS011;5374;42.742;23.266;2023-02-28T08:13:03;40.03;;;27.27;;
10651;SDS011;5374;42.742;23.266;2023-02-28T08:15:50;42.70;;;26.10;;
10651;SDS011;5374;42.742;23.266;2023-02-28T08:18:38;37.07;;;24.57;;
10651;SDS011;5374;42.742;23.266;2023-02-28T08:21:26;36.70;;;26.90;;
10651;SDS011;5374;42.742;23.266;2023-02-28T08:24:13;37.17;;;24.63;;
10651;SDS011;5374;42.742;23.266;2023-02-28T08:27:00;33.50;;;23.83;;
10651;SDS011;5374;42.742;23.266;2023-02-28T08:29:49;39.03;;;26.27;;
10651;SDS011;5374;42.742;23.266;2023-02-28T08:32:37;41.73;;;27.97;;
10651;SDS011;5374;42.742;23.266;2023-02-28T08:35:24;36.40;;;24.10;;
10651;SDS011;5374;42.742;23.266;2023-02-28T08:38:11;33.73;;;22.90;;
10651;SDS011;5374;42.742;23.266;2023-02-28T08:40:59;35.87;;;24.50;;
10651;SDS011;5374;42.742;23.266;2023-02-28T08:43:47;35.80;;;23.67;;
10651;SDS011;5374;42.742;23.266;2023-02-28T08:46:36;37.30;;;23.70;;
10651;SDS011;5374;42.742;23.266;2023-02-28T08:49:24;43.07;;;25.30;;
10651;SDS011;5374;42.742;23.266;2023-02-28T08:52:11;39.53;;;26.43;;
10651;SDS011;5374;42.742;23.266;2023-02-28T08:54:58;46.13;;;28.70;;
10651;SDS011;5374;42.742;23.266;2023-02-28T08:57:46;48.93;;;30.80;;
10651;SDS011;5374;42.742;23.266;2023-02-28T09:00:33;36.60;;;26.40;;
10651;SDS011;5374;42.742;23.266;2023-02-28T09:03:24;37.93;;;26.37;;
10651;SDS011;5374;42.742;23.266;2023-02-28T09:06:12;37.23;;;26.20;;
10651;SDS011;5374;42.742;23.266;2023-02-28T09:09:00;41.87;;;28.67;;
10651;SDS011;5374;42.742;23.266;2023-02-28T09:11:49;37.57;;;25.57;;
10651;SDS011;5374;42.742;23.266;2023-02-28T09:14:36;41.20;;;28.00;;
10651;SDS011;5374;42.742;23.266;2023-02-28T09:17:24;42.90;;;26.93;;
10651;SDS011;5374;42.742;23.266;2023-02-28T09:20:13;48.00;;;26.40;;
10651;SDS011;5374;42.742;23.266;2023-02-28T09:23:00;44.30;;;29.17;;
10651;SDS011;5374;42.742;23.266;2023-02-28T09:25:47;64.43;;;41.33;;
10651;SDS011;5374;42.742;23.266;2023-02-28T09:28:36;43.50;;;29.87;;
10651;SDS011;5374;42.742;23.266;2023-02-28T09:31:24;48.50;;;32.47;;
10651;SDS011;5374;42.742;23.266;2023-02-28T09:34:13;36.63;;;24.47;;
10651;SDS011;5374;42.742;23.266;2023-02-28T09:37:02;43.00;;;28.17;;
10651;SDS011;5374;42.742;23.266;2023-02-28T09:39:50;35.67;;;24.77;;
10651;SDS011;5374;42.742;23.266;2023-02-28T09:42:37;36.10;;;25.77;;
10651;SDS011;5374;42.742;23.266;2023-02-28T09:45:26;44.23;;;29.17;;
10651;SDS011;5374;42.742;23.266;2023-02-28T09:48:19;53.10;;;32.20;;
10651;SDS011;5374;42.742;23.266;2023-02-28T09:51:12;38.67;;;27.57;;
10651;SDS011;5374;42.742;23.266;2023-02-28T09:54:13;40.93;;;28.30;;
10651;SDS011;5374;42.742;23.266;2023-02-28T09:57:06;43.73;;;29.00;;
10651;SDS011;5374;42.742;23.266;2023-02-28T09:59:58;35.97;;;25.37;;
10651;SDS011;5374;42.742;23.266;2023-02-28T10:03:00;33.40;;;24.93;;
10651;SDS011;5374;42.742;23.266;2023-02-28T10:05:54;35.17;;;23.40;;
10651;SDS011;5374;42.742;23.266;2023-02-28T10:08:50;37.37;;;25.17;;
10651;SDS011;5374;42.742;23.266;2023-02-28T10:11:44;35.73;;;25.47;;
10651;SDS011;5374;42.742;23.266;2023-02-28T10:14:33;36.73;;;25.73;;
10651;SDS011;5374;42.742;23.266;2023-02-28T10:17:23;35.50;;;22.10;;
10651;SDS011;5374;42.742;23.266;2023-02-28T10:20:14;29.00;;;19.57;;
10651;SDS011;5374;42.742;23.266;2023-02-28T10:23:09;25.10;;;16.30;;
10651;SDS011;5374;42.742;23.266;2023-02-28T10:26:01;25.50;;;14.23;;
10651;SDS011;5374;42.742;23.266;2023-02-28T10:28:58;29.83;;;15.03;;
10651;SDS011;5374;42.742;23.266;2023-02-28T10:31:45;29.33;;;15.53;;
10651;SDS011;5374;42.742;23.266;2023-02-28T10:34:33;26.00;;;15.07;;
10651;SDS011;5374;42.742;23.266;2023-02-28T10:37:20;26.23;;;15.17;;
10651;SDS011;5374;42.742;23.266;2023-02-28T10:40:11;23.87;;;13.57;;
10651;SDS011;5374;42.742;23.266;2023-02-28T10:43:18;22.53;;;13.00;;
10651;SDS011;5374;42.742;23.266;2023-02-28T10:46:12;21.70;;;13.17;;
10651;SDS011;5374;42.742;23.266;2023-02-28T10:49:12;24.37;;;12.57;;
10651;SDS011;5374;42.742;23.266;2023-02-28T10:52:04;24.97;;;12.27;;
10651;SDS011;5374;42.742;23.266;2023-02-28T10:54:53;25.07;;;11.90;;
10651;SDS011;5374;42.742;23.266;2023-02-28T10:58:01;20.40;;;11.80;;
10651;SDS011;5374;42.742;23.266;2023-02-28T11:00:48;20.27;;;11.37;;
10651;SDS011;5374;42.742;23.266;2023-02-28T11:03:39;24.13;;;11.80;;
10651;SDS011;5374;42.742;23.266;2023-02-28T11:06:28;22.50;;;12.10;;
10651;SDS011;5374;42.742;23.266;2023-02-28T11:09:19;23.00;;;12.03;;
10651;SDS011;5374;42.742;23.266;2023-02-28T11:12:19;20.23;;;12.00;;
10651;SDS011;5374;42.742;23.266;2023-02-28T11:15:19;25.27;;;13.03;;
10651;SDS011;5374;42.742;23.266;2023-02-28T11:18:18;22.27;;;11.63;;
10651;SDS011;5374;42.742;23.266;2023-02-28T11:21:14;23.80;;;12.73;;
10651;SDS011;5374;42.742;23.266;2023-02-28T11:24:05;16.23;;;11.17;;
10651;SDS011;5374;42.742;23.266;2023-02-28T11:27:03;28.20;;;14.30;;
10651;SDS011;5374;42.742;23.266;2023-02-28T11:29:50;26.93;;;14.40;;
10651;SDS011;5374;42.742;23.266;2023-02-28T11:32:37;20.37;;;13.07;;
10651;SDS011;5374;42.742;23.266;2023-02-28T11:35:36;22.77;;;12.20;;
10651;SDS011;5374;42.742;23.266;2023-02-28T11:38:27;30.37;;;18.27;;
10651;SDS011;5374;42.742;23.266;2023-02-28T11:41:18;28.73;;;13.30;;
10651;SDS011;5374;42.742;23.266;2023-02-28T11:44:21;27.67;;;13.70;;
10651;SDS011;5374;42.742;23.266;2023-02-28T11:47:17;22.33;;;12.07;;
10651;SDS011;5374;42.742;23.266;2023-02-28T11:50:18;24.03;;;12.77;;
10651;SDS011;5374;42.742;23.266;2023-02-28T11:53:17;21.23;;;13.17;;
10651;SDS011;5374;42.742;23.266;2023-02-28T11:56:22;23.77;;;12.83;;
10651;SDS011;5374;42.742;23.266;2023-02-28T12:02:29;24.60;;;13.60;;
10651;SDS011;5374;42.742;23.266;2023-02-28T12:05:27;21.83;;;13.57;;
10651;SDS011;5374;42.742;23.266;2023-02-28T12:08:23;22.07;;;13.00;;
10651;SDS011;5374;42.742;23.266;2023-02-28T12:11:26;25.33;;;12.60;;
10651;SDS011;5374;42.742;23.266;2023-02-28T12:14:29;22.50;;;12.93;;
10651;SDS011;5374;42.742;23.266;2023-02-28T12:17:38;24.13;;;12.87;;
10651;SDS011;5374;42.742;23.266;2023-02-28T12:20:38;22.90;;;12.50;;
10651;SDS011;5374;42.742;23.266;2023-02-28T12:23:38;25.73;;;11.33;;
10651;SDS011;5374;42.742;23.266;2023-02-28T12:26:38;26.17;;;11.27;;
10651;SDS011;5374;42.742;23.266;2023-02-28T12:29:28;18.07;;;10.70;;
10651;SDS011;5374;42.742;23.266;2023-02-28T12:32:18;20.97;;;11.17;;
10651;SDS011;5374;42.742;23.266;2023-02-28T12:35:11;21.77;;;10.27;;
10651;SDS011;5374;42.742;23.266;2023-02-28T12:38:02;18.80;;;9.80;;
10651;SDS011;5374;42.742;23.266;2023-02-28T12:40:53;22.63;;;11.17;;
10651;SDS011;5374;42.742;23.266;2023-02-28T12:43:46;20.53;;;10.30;;
10651;SDS011;5374;42.742;23.266;2023-02-28T12:46:41;21.20;;;11.53;;
10651;SDS011;5374;42.742;23.266;2023-02-28T12:49:31;16.63;;;10.63;;
10651;SDS011;5374;42.742;23.266;2023-02-28T12:52:23;18.07;;;9.60;;
10651;SDS011;5374;42.742;23.266;2023-02-28T12:55:15;20.77;;;10.53;;
10651;SDS011;5374;42.742;23.266;2023-02-28T12:58:12;20.57;;;10.70;;
10651;SDS011;5374;42.742;23.266;2023-02-28T13:04:28;18.30;;;11.33;;
10651;SDS011;5374;42.742;23.266;2023-02-28T13:10:57;21.60;;;10.97;;
10651;SDS011;5374;42.742;23.266;2023-02-28T13:13:44;17.93;;;9.87;;
10651;SDS011;5374;42.742;23.266;2023-02-28T13:16:54;25.70;;;10.40;;
10651;SDS011;5374;42.742;23.266;2023-02-28T13:19:55;22.33;;;11.27;;
10651;SDS011;5374;42.742;23.266;2023-02-28T13:22:46;24.20;;;11.20;;
10651;SDS011;5374;42.742;23.266;2023-02-28T13:32:26;20.43;;;10.90;;
10651;SDS011;5374;42.742;23.266;2023-02-28T13:38:32;28.03;;;13.73;;
10651;SDS011;5374;42.742;23.266;2023-02-28T13:44:47;27.53;;;12.80;;
10651;SDS011;5374;42.742;23.266;2023-02-28T13:48:19;24.83;;;13.03;;
10651;SDS011;5374;42.742;23.266;2023-02-28T13:54:29;26.50;;;11.97;;
10651;SDS011;5374;42.742;23.266;2023-02-28T13:57:24;25.90;;;13.67;;
10651;SDS011;5374;42.742;23.266;2023-02-28T14:00:28;21.67;;;10.87;;
10651;SDS011;5374;42.742;23.266;2023-02-28T14:03:32;24.17;;;12.20;;
10651;SDS011;5374;42.742;23.266;2023-02-28T14:06:31;21.97;;;10.53;;
10651;SDS011;5374;42.742;23.266;2023-02-28T14:09:21;24.30;;;12.50;;
10651;SDS011;5374;42.742;23.266;2023-02-28T14:15:47;20.80;;;11.13;;
10651;SDS011;5374;42.742;23.266;2023-02-28T14:18:37;22.20;;;10.37;;
10651;SDS011;5374;42.742;23.266;2023-02-28T14:21:29;17.47;;;10.53;;
10651;SDS011;5374;42.742;23.266;2023-02-28T14:24:32;22.80;;;10.87;;
10651;SDS011;5374;42.742;23.266;2023-02-28T14:27:40;23.57;;;11.50;;
10651;SDS011;5374;42.742;23.266;2023-02-28T14:34:03;25.17;;;12.10;;
10651;SDS011;5374;42.742;23.266;2023-02-28T14:37:01;20.67;;;11.00;;
10651;SDS011;5374;42.742;23.266;2023-02-28T14:39:49;20.97;;;10.83;;
10651;SDS011;5374;42.742;23.266;2023-02-28T14:42:37;22.90;;;11.67;;
10651;SDS011;5374;42.742;23.266;2023-02-28T14:45:29;22.57;;;11.63;;
10651;SDS011;5374;42.742;23.266;2023-02-28T14:48:18;20.40;;;11.10;;
10651;SDS011;5374;42.742;23.266;2023-02-28T14:51:08;18.87;;;11.77;;
10651;SDS011;5374;42.742;23.266;2023-02-28T14:53:57;23.33;;;12.97;;
10651;SDS011;5374;42.742;23.266;2023-02-28T14:56:48;23.43;;;12.30;;
10651;SDS011;5374;42.742;23.266;2023-02-28T14:59:36;62.20;;;33.90;;
10651;SDS011;5374;42.742;23.266;2023-02-28T15:02:25;44.53;;;27.93;;
10651;SDS011;5374;42.742;23.266;2023-02-28T15:05:21;22.20;;;12.43;;
10651;SDS011;5374;42.742;23.266;2023-02-28T15:08:15;21.67;;;12.83;;
10651;SDS011;5374;42.742;23.266;2023-02-28T15:11:04;25.47;;;15.63;;
10651;SDS011;5374;42.742;23.266;2023-02-28T15:13:54;21.80;;;13.33;;
10651;SDS011;5374;42.742;23.266;2023-02-28T15:16:42;18.83;;;12.53;;
10651;SDS011;5374;42.742;23.266;2023-02-28T15:19:32;23.37;;;17.03;;
10651;SDS011;5374;42.742;23.266;2023-02-28T15:22:24;21.57;;;12.63;;
10651;SDS011;5374;42.742;23.266;2023-02-28T15:25:17;19.03;;;13.40;;
10651;SDS011;5374;42.742;23.266;2023-02-28T15:28:09;23.07;;;14.53;;
10651;SDS011;5374;42.742;23.266;2023-02-28T15:31:02;16.30;;;13.20;;
10651;SDS011;5374;42.742;23.266;2023-02-28T15:34:05;13.37;;;9.30;;
10651;SDS011;5374;42.742;23.266;2023-02-28T15:36:53;15.93;;;8.90;;
10651;SDS011;5374;42.742;23.266;2023-02-28T15:39:41;13.77;;;9.50;;
10651;SDS011;5374;42.742;23.266;2023-02-28T15:42:32;17.50;;;11.00;;
10651;SDS011;5374;42.742;23.266;2023-02-28T15:45:31;16.63;;;10.57;;
10651;SDS011;5374;42.742;23.266;2023-02-28T15:48:24;16.53;;;8.93;;
10651;SDS011;5374;42.742;23.266;2023-02-28T15:51:16;16.50;;;9.40;;
10651;SDS011;5374;42.742;23.266;2023-02-28T15:54:06;18.83;;;9.83;;
10651;SDS011;5374;42.742;23.266;2023-02-28T15:56:55;22.20;;;12.53;;
10651;SDS011;5374;42.742;23.266;2023-02-28T15:59:48;19.67;;;10.73;;
10651;SDS011;5374;42.742;23.266;2023-02-28T16:02:38;29.83;;;15.27;;
10651;SDS011;5374;42.742;23.266;2023-02-28T16:05:26;19.63;;;11.20;;
10651;SDS011;5374;42.742;23.266;2023-02-28T16:08:17;18.97;;;13.33;;
10651;SDS011;5374;42.742;23.266;2023-02-28T16:11:08;38.37;;;27.07;;
10651;SDS011;5374;42.742;23.266;2023-02-28T16:13:56;29.43;;;19.50;;
10651;SDS011;5374;42.742;23.266;2023-02-28T16:16:50;21.00;;;13.43;;
10651;SDS011;5374;42.742;23.266;2023-02-28T16:19:40;15.23;;;11.87;;
10651;SDS011;5374;42.742;23.266;2023-02-28T16:22:27;15.23;;;11.17;;
10651;SDS011;5374;42.742;23.266;2023-02-28T16:25:22;13.30;;;9.60;;
10651;SDS011;5374;42.742;23.266;2023-02-28T16:28:17;17.30;;;13.80;;
10651;SDS011;5374;42.742;23.266;2023-02-28T16:31:07;12.13;;;8.13;;
10651;SDS011;5374;42.742;23.266;2023-02-28T16:33:58;17.50;;;9.23;;
10651;SDS011;5374;42.742;23.266;2023-02-28T16:36:46;16.13;;;8.77;;
10651;SDS011;5374;42.742;23.266;2023-02-28T16:39:36;11.37;;;7.57;;
10651;SDS011;5374;42.742;23.266;2023-02-28T16:42:25;9.27;;;6.03;;
10651;SDS011;5374;42.742;23.266;2023-02-28T16:45:15;11.53;;;5.77;;
10651;SDS011;5374;42.742;23.266;2023-02-28T16:48:10;12.53;;;7.13;;
10651;SDS011;5374;42.742;23.266;2023-02-28T16:51:02;14.33;;;7.63;;
10651;SDS011;5374;42.742;23.266;2023-02-28T16:53:50;14.93;;;9.17;;
10651;SDS011;5374;42.742;23.266;2023-02-28T16:56:38;14.00;;;8.97;;
10651;SDS011;5374;42.742;23.266;2023-02-28T16:59:30;15.53;;;9.47;;
10651;SDS011;5374;42.742;23.266;2023-02-28T17:02:21;19.87;;;10.13;;
10651;SDS011;5374;42.742;23.266;2023-02-28T17:05:08;13.50;;;8.20;;
10651;SDS011;5374;42.742;23.266;2023-02-28T17:07:59;19.40;;;10.00;;
10651;SDS011;5374;42.742;23.266;2023-02-28T17:10:46;15.07;;;8.60;;
10651;SDS011;5374;42.742;23.266;2023-02-28T17:13:34;16.43;;;9.70;;
10651;SDS011;5374;42.742;23.266;2023-02-28T17:16:22;17.27;;;10.80;;
10651;SDS011;5374;42.742;23.266;2023-02-28T17:19:13;16.07;;;10.93;;
10651;SDS011;5374;42.742;23.266;2023-02-28T17:22:02;16.70;;;9.63;;
10651;SDS011;5374;42.742;23.266;2023-02-28T17:24:51;15.80;;;12.03;;
10651;SDS011;5374;42.742;23.266;2023-02-28T17:27:41;9.50;;;6.73;;
10651;SDS011;5374;42.742;23.266;2023-02-28T17:30:28;11.57;;;7.07;;
10651;SDS011;5374;42.742;23.266;2023-02-28T17:33:16;12.07;;;6.60;;
10651;SDS011;5374;42.742;23.266;2023-02-28T17:36:04;8.83;;;6.80;;
10651;SDS011;5374;42.742;23.266;2023-02-28T17:38:52;9.77;;;6.60;;
10651;SDS011;5374;42.742;23.266;2023-02-28T17:41:41;12.23;;;6.47;;
10651;SDS011;5374;42.742;23.266;2023-02-28T17:44:29;13.17;;;8.03;;
10651;SDS011;5374;42.742;23.266;2023-02-28T17:47:16;8.43;;;6.47;;